Time;durP1;ratioP1;P1;durP2;ratioP2;P2;SDS_P1;SDS_P2;PMS_P1;PMS_P2;Temp;Humidity;BMP_temperature;BMP_pressure;BME280_temperature;BME280_humidity;BME280_pressure;Samples;Min_cycle;Max_cycle;Signal;HPM_P1;HPM_P2
2022/07/27 00:00:07;;;;;;;4.55;3.00;;;21.10;99.90;;;;;;4891589;29;20052;-73
2022/07/27 00:02:39;;;;;;;3.65;3.22;;;21.00;99.90;;;;;;4893552;29;20143;-73
2022/07/27 00:05:07;;;;;;;3.50;3.20;;;21.00;99.90;;;;;;4897065;29;20057;-74
2022/07/27 00:07:35;;;;;;;3.83;3.10;;;21.00;99.90;;;;;;4896046;29;20112;-73
2022/07/27 00:10:03;;;;;;;3.45;3.15;;;20.90;99.90;;;;;;4897665;29;20084;-73
2022/07/27 00:12:30;;;;;;;4.13;3.40;;;21.00;99.90;;;;;;4897576;29;20116;-74
2022/07/27 00:14:58;;;;;;;3.33;3.03;;;20.90;99.90;;;;;;4895477;29;20045;-73
2022/07/27 00:17:25;;;;;;;3.20;3.00;;;20.90;99.90;;;;;;4895868;29;20055;-73
2022/07/27 00:19:52;;;;;;;3.75;3.08;;;20.90;99.90;;;;;;4896964;29;20156;-74
2022/07/27 00:22:21;;;;;;;3.85;3.22;;;20.90;99.90;;;;;;4896739;29;20131;-74
2022/07/27 00:24:50;;;;;;;6.05;3.17;;;20.90;99.90;;;;;;4896671;29;20104;-73
2022/07/27 00:27:17;;;;;;;6.72;3.33;;;20.90;99.90;;;;;;4897500;29;20105;-73
2022/07/27 00:29:45;;;;;;;4.85;3.80;;;20.80;99.90;;;;;;4895947;29;20108;-74
2022/07/27 00:32:12;;;;;;;8.15;2.97;;;20.80;99.90;;;;;;4896936;29;20151;-76
2022/07/27 00:34:39;;;;;;;3.30;3.10;;;20.80;99.90;;;;;;4895514;29;20509;-73
2022/07/27 00:37:06;;;;;;;3.60;3.28;;;20.80;99.90;;;;;;4897053;29;20048;-73
2022/07/27 00:39:33;;;;;;;4.45;3.78;;;20.70;99.90;;;;;;4896957;29;20048;-73
2022/07/27 00:42:02;;;;;;;7.38;3.78;;;20.70;99.90;;;;;;4896708;29;20419;-73
2022/07/27 00:44:31;;;;;;;3.42;3.22;;;20.70;99.90;;;;;;4896233;29;20557;-73
2022/07/27 00:46:59;;;;;;;5.93;3.20;;;20.70;99.90;;;;;;4896624;29;20059;-74
2022/07/27 00:49:27;;;;;;;5.80;4.28;;;20.70;99.90;;;;;;4895643;29;20437;-73
2022/07/27 00:51:54;;;;;;;5.30;3.25;;;20.70;99.90;;;;;;4896370;29;20462;-73
2022/07/27 00:54:22;;;;;;;7.15;3.70;;;20.70;99.90;;;;;;4896791;29;20546;-73
2022/07/27 00:56:49;;;;;;;5.55;4.22;;;20.70;99.90;;;;;;4896521;29;20060;-74
2022/07/27 00:59:19;;;;;;;3.72;3.33;;;20.70;99.90;;;;;;4894631;29;20128;-73
2022/07/27 01:01:46;;;;;;;4.28;3.90;;;20.70;99.90;;;;;;4896489;29;20088;-73
2022/07/27 01:04:13;;;;;;;7.40;3.63;;;20.70;99.90;;;;;;4895028;29;20439;-73
2022/07/27 01:06:40;;;;;;;6.43;3.53;;;20.70;99.90;;;;;;4896277;29;20537;-73
2022/07/27 01:11:52;;;;;;;8.80;4.03;;;20.70;99.90;;;;;;4894884;29;20062;-73
2022/07/27 01:14:20;;;;;;;7.65;3.63;;;20.60;99.90;;;;;;4894486;29;20056;-73
2022/07/27 01:16:48;;;;;;;3.33;3.00;;;20.60;99.90;;;;;;4894400;29;20159;-73
2022/07/27 01:19:15;;;;;;;9.70;3.90;;;20.60;99.90;;;;;;4879197;29;20115;-74
2022/07/27 01:21:43;;;;;;;3.63;3.13;;;20.60;99.90;;;;;;4896400;29;20107;-74
2022/07/27 01:24:10;;;;;;;8.00;3.72;;;20.50;99.90;;;;;;4896325;29;20066;-75
2022/07/27 01:26:38;;;;;;;5.80;3.63;;;20.50;99.90;;;;;;4896449;29;20053;-74
2022/07/27 01:29:06;;;;;;;6.25;3.70;;;20.40;99.90;;;;;;4896173;29;20108;-75
2022/07/27 01:31:33;;;;;;;9.20;3.33;;;20.40;99.90;;;;;;4896233;29;20076;-74
2022/07/27 01:34:00;;;;;;;6.78;3.55;;;20.40;99.90;;;;;;4895966;29;20049;-74
2022/07/27 01:36:28;;;;;;;6.78;4.28;;;20.40;99.90;;;;;;4894217;29;20072;-74
2022/07/27 01:38:56;;;;;;;3.70;3.40;;;20.40;99.90;;;;;;4895578;29;20100;-74
2022/07/27 01:41:23;;;;;;;6.00;3.35;;;20.40;99.90;;;;;;4895535;29;20055;-74
2022/07/27 01:43:50;;;;;;;8.60;3.33;;;20.40;99.90;;;;;;4895857;29;20056;-74
2022/07/27 01:46:18;;;;;;;5.00;3.50;;;20.40;99.90;;;;;;4895455;29;20045;-74
2022/07/27 01:48:45;;;;;;;3.88;3.55;;;20.40;99.90;;;;;;4894217;29;20060;-74
2022/07/27 01:51:12;;;;;;;6.88;4.03;;;20.40;99.90;;;;;;4895487;29;20183;-74
2022/07/27 01:53:39;;;;;;;6.07;3.97;;;20.40;99.90;;;;;;4895200;29;20513;-74
2022/07/27 01:56:11;;;;;;;4.25;3.30;;;20.40;99.90;;;;;;4895595;29;20151;-74
2022/07/27 01:58:40;;;;;;;6.75;3.53;;;20.40;99.90;;;;;;4894850;29;20521;-74
2022/07/27 02:01:07;;;;;;;6.72;3.90;;;20.30;99.90;;;;;;4895538;29;20064;-74
2022/07/27 02:03:35;;;;;;;4.45;3.78;;;20.30;99.90;;;;;;4893828;29;20093;-74
2022/07/27 02:06:04;;;;;;;4.63;3.88;;;20.30;99.90;;;;;;4893619;29;20548;-73
2022/07/27 02:08:31;;;;;;;8.40;3.70;;;20.30;99.90;;;;;;4894060;29;20124;-73
2022/07/27 02:13:46;;;;;;;7.05;3.88;;;20.30;99.90;;;;;;4895079;29;20048;-73
2022/07/27 02:16:13;;;;;;;7.18;3.92;;;20.30;99.90;;;;;;4895214;29;20221;-73
2022/07/27 02:18:41;;;;;;;5.65;3.50;;;20.30;99.90;;;;;;4895629;29;20048;-73
2022/07/27 02:21:09;;;;;;;8.57;4.38;;;20.30;99.90;;;;;;4895031;29;20139;-73
2022/07/27 02:23:37;;;;;;;7.07;4.18;;;20.20;99.90;;;;;;4895038;29;20063;-74
2022/07/27 02:26:06;;;;;;;5.85;4.10;;;20.20;99.90;;;;;;4894546;29;20143;-74
2022/07/27 02:28:34;;;;;;;4.82;4.25;;;20.20;99.90;;;;;;4894182;29;20083;-73
2022/07/27 02:31:03;;;;;;;6.22;3.65;;;20.20;99.90;;;;;;4893223;29;20143;-73
2022/07/27 02:33:30;;;;;;;4.38;3.83;;;20.20;99.90;;;;;;4894689;29;20085;-72
2022/07/27 02:35:57;;;;;;;7.70;4.35;;;20.20;99.90;;;;;;4893167;29;20583;-73
2022/07/27 02:38:25;;;;;;;7.68;4.45;;;20.20;99.90;;;;;;4893163;29;20060;-73
2022/07/27 02:40:52;;;;;;;4.60;3.75;;;20.20;99.90;;;;;;4894520;29;20061;-74
2022/07/27 02:43:19;;;;;;;8.10;4.80;;;20.20;99.90;;;;;;4893843;29;20076;-73
2022/07/27 02:45:47;;;;;;;8.45;4.43;;;20.20;99.90;;;;;;4892373;29;20052;-74
2022/07/27 02:48:15;;;;;;;8.07;4.15;;;20.30;99.90;;;;;;4892820;29;20049;-74
2022/07/27 02:50:42;;;;;;;4.35;4.00;;;20.30;99.90;;;;;;4894521;29;20108;-74
2022/07/27 02:53:10;;;;;;;4.22;3.80;;;20.40;99.90;;;;;;4908362;29;20632;-73
2022/07/27 02:55:37;;;;;;;4.35;3.67;;;20.50;99.90;;;;;;4892941;29;20199;-74
2022/07/27 02:58:04;;;;;;;7.90;4.25;;;20.50;99.90;;;;;;4877080;29;20159;-74
2022/07/27 03:00:31;;;;;;;9.90;4.22;;;20.60;99.90;;;;;;4877550;29;20739;-74
2022/07/27 03:02:58;;;;;;;7.97;4.47;;;20.70;99.90;;;;;;4894332;29;20128;-74
2022/07/27 03:05:26;;;;;;;5.40;3.33;;;20.80;99.90;;;;;;4894142;29;20065;-74
2022/07/27 03:07:54;;;;;;;4.60;3.85;;;20.80;99.90;;;;;;4894273;29;20052;-74
2022/07/27 03:10:21;;;;;;;7.47;4.30;;;20.90;99.90;;;;;;4894212;29;20151;-74
2022/07/27 03:12:48;;;;;;;9.07;3.72;;;21.00;99.90;;;;;;4894168;29;20104;-74
2022/07/27 03:15:15;;;;;;;7.90;4.03;;;21.10;99.90;;;;;;4893474;29;20505;-74
2022/07/27 03:17:42;;;;;;;8.27;3.95;;;21.10;99.90;;;;;;4892491;29;20049;-74
2022/07/27 03:20:10;;;;;;;6.47;4.43;;;21.10;99.90;;;;;;4893951;29;20111;-73
2022/07/27 03:22:39;;;;;;;5.72;4.40;;;21.20;99.90;;;;;;4894076;29;20086;-74
2022/07/27 03:25:07;;;;;;;6.57;4.38;;;21.20;99.90;;;;;;4892666;29;20057;-73
2022/07/27 03:27:34;;;;;;;5.57;4.32;;;21.20;99.90;;;;;;4894034;29;20478;-74
2022/07/27 03:30:01;;;;;;;9.00;4.05;;;21.30;99.90;;;;;;4893767;29;20056;-74
2022/07/27 03:32:30;;;;;;;5.97;4.47;;;21.30;99.90;;;;;;4893274;29;20055;-74
2022/07/27 03:34:57;;;;;;;6.78;4.18;;;21.30;99.90;;;;;;4893807;29;20049;-74
2022/07/27 03:37:24;;;;;;;5.07;4.25;;;21.30;99.90;;;;;;4893278;29;20096;-75
2022/07/27 03:39:53;;;;;;;6.88;4.22;;;21.40;99.90;;;;;;4893152;29;20067;-74
2022/07/27 03:42:20;;;;;;;4.50;4.10;;;21.40;99.90;;;;;;4892390;29;20049;-74
2022/07/27 03:44:47;;;;;;;7.40;4.13;;;21.50;99.90;;;;;;4893839;29;20128;-74
2022/07/27 03:47:14;;;;;;;6.00;4.35;;;21.50;99.90;;;;;;4892288;29;20056;-74
2022/07/27 03:49:42;;;;;;;11.60;4.13;;;21.50;99.90;;;;;;4893945;29;20064;-74
2022/07/27 03:52:09;;;;;;;12.95;4.07;;;21.50;99.90;;;;;;4892392;29;20177;-73
2022/07/27 03:54:36;;;;;;;6.70;3.92;;;21.50;99.90;;;;;;4893521;29;20059;-74
2022/07/27 03:57:05;;;;;;;8.55;4.35;;;21.50;99.90;;;;;;4892335;29;20063;-73
2022/07/27 03:59:32;;;;;;;8.25;4.18;;;21.50;99.90;;;;;;4893278;29;20520;-74
2022/07/27 04:01:59;;;;;;;7.60;4.90;;;21.40;99.90;;;;;;4893454;29;20137;-74
2022/07/27 04:04:26;;;;;;;10.07;4.28;;;21.40;99.90;;;;;;4893632;29;20052;-73
2022/07/27 04:06:53;;;;;;;9.23;4.70;;;21.40;99.90;;;;;;4893304;29;20135;-73
2022/07/27 04:09:20;;;;;;;5.22;4.65;;;21.40;99.90;;;;;;4893031;29;20526;-74
2022/07/27 04:11:48;;;;;;;7.78;4.35;;;21.50;99.90;;;;;;4892084;29;20168;-74
2022/07/27 04:14:16;;;;;;;8.82;4.60;;;21.50;99.90;;;;;;4892056;29;20124;-74
2022/07/27 04:16:44;;;;;;;14.70;5.30;;;21.50;99.90;;;;;;4893317;29;20517;-74
2022/07/27 04:19:11;;;;;;;8.55;4.30;;;21.50;99.90;;;;;;4891928;29;20057;-74
2022/07/27 04:21:38;;;;;;;10.57;4.85;;;21.60;99.90;;;;;;4892493;29;20136;-74
2022/07/27 04:24:06;;;;;;;9.93;4.88;;;21.60;99.90;;;;;;4891888;29;20391;-74
2022/07/27 04:26:34;;;;;;;13.80;5.03;;;21.60;99.90;;;;;;4893266;29;20068;-74
2022/07/27 04:29:01;;;;;;;12.93;5.47;;;21.60;99.90;;;;;;4893107;29;20062;-74
2022/07/27 04:31:29;;;;;;;10.55;5.28;;;21.70;99.90;;;;;;4891887;29;20072;-74
2022/07/27 04:33:56;;;;;;;7.28;3.97;;;21.60;99.90;;;;;;4893045;29;20057;-74
2022/07/27 04:36:23;;;;;;;6.78;4.80;;;21.60;99.90;;;;;;4893446;29;20136;-73
2022/07/27 04:38:51;;;;;;;10.75;4.78;;;21.60;99.90;;;;;;4891734;29;20162;-74
2022/07/27 04:41:18;;;;;;;7.53;4.25;;;21.50;99.90;;;;;;4893124;29;20053;-74
2022/07/27 04:43:45;;;;;;;13.30;5.53;;;21.60;99.90;;;;;;4893006;29;20091;-74
2022/07/27 04:46:14;;;;;;;11.57;6.10;;;21.60;99.90;;;;;;4892984;29;20084;-74
2022/07/27 04:48:42;;;;;;;6.30;4.35;;;21.70;99.90;;;;;;4892572;29;20062;-74
2022/07/27 04:51:14;;;;;;;7.80;5.10;;;21.80;99.90;;;;;;4894542;29;20546;-74
2022/07/27 04:53:42;;;;;;;6.80;5.20;;;21.80;99.90;;;;;;4894878;29;20064;-74
2022/07/27 04:56:09;;;;;;;9.73;5.57;;;21.80;99.90;;;;;;4895840;29;20169;-74
2022/07/27 04:58:37;;;;;;;8.75;5.10;;;21.90;99.90;;;;;;4895938;29;20060;-74
2022/07/27 05:01:04;;;;;;;7.50;4.50;;;21.90;99.90;;;;;;4894766;29;20049;-74
2022/07/27 05:03:32;;;;;;;7.70;5.28;;;22.00;99.90;;;;;;4896486;29;20176;-73
2022/07/27 05:06:00;;;;;;;6.13;4.32;;;22.10;99.90;;;;;;4895985;29;20129;-74
2022/07/27 05:08:28;;;;;;;8.45;4.53;;;22.20;99.90;;;;;;4895922;29;20067;-74
2022/07/27 05:10:55;;;;;;;5.22;4.40;;;22.30;99.90;;;;;;4895716;29;20056;-74
2022/07/27 05:13:22;;;;;;;6.25;5.13;;;22.40;99.90;;;;;;4895100;29;20052;-73
2022/07/27 05:15:49;;;;;;;6.88;4.57;;;22.40;99.90;;;;;;4894342;29;20045;-74
2022/07/27 05:18:17;;;;;;;12.90;6.88;;;22.50;99.90;;;;;;4895984;29;20059;-74
2022/07/27 05:20:45;;;;;;;9.00;5.35;;;22.60;99.90;;;;;;4896121;29;20056;-74
2022/07/27 05:23:13;;;;;;;8.07;4.47;;;22.60;99.90;;;;;;4894018;29;20429;-73
2022/07/27 05:25:40;;;;;;;7.47;4.80;;;22.70;99.90;;;;;;4895872;29;20064;-74
2022/07/27 05:28:07;;;;;;;8.10;5.45;;;22.80;99.90;;;;;;4895825;29;20100;-75
2022/07/27 05:30:34;;;;;;;6.45;4.45;;;22.80;99.90;;;;;;4894388;29;20049;-74
2022/07/27 05:33:01;;;;;;;12.20;5.15;;;22.90;99.90;;;;;;4910092;29;20097;-74
2022/07/27 05:35:28;;;;;;;13.80;5.43;;;22.90;99.90;;;;;;4896125;29;20056;-74
2022/07/27 05:37:55;;;;;;;10.18;4.60;;;22.80;99.90;;;;;;4895548;29;20144;-74
2022/07/27 05:40:25;;;;;;;9.80;4.90;;;22.90;99.90;;;;;;4894125;29;20093;-74
2022/07/27 05:42:52;;;;;;;7.68;4.60;;;22.90;99.90;;;;;;4895310;29;20064;-74
2022/07/27 05:45:19;;;;;;;10.45;5.85;;;22.90;99.90;;;;;;4894055;29;20059;-73
2022/07/27 05:47:46;;;;;;;8.07;5.05;;;22.90;99.90;;;;;;4895678;29;20661;-74
2022/07/27 05:50:14;;;;;;;5.43;4.93;;;22.80;99.90;;;;;;4895699;29;20062;-74
2022/07/27 05:52:42;;;;;;;7.68;5.25;;;22.80;99.90;;;;;;4894050;29;20052;-74
2022/07/27 05:55:10;;;;;;;8.25;5.00;;;22.80;99.90;;;;;;4896398;29;20156;-74
2022/07/27 05:57:39;;;;;;;7.35;5.22;;;22.80;99.90;;;;;;4895759;29;20048;-74
2022/07/27 06:00:09;;;;;;;13.13;5.63;;;22.90;99.90;;;;;;4894339;29;20067;-74
2022/07/27 06:02:39;;;;;;;14.30;5.50;;;23.00;99.90;;;;;;4895348;29;20172;-75
2022/07/27 06:05:07;;;;;;;14.95;5.97;;;23.10;99.90;;;;;;4894050;29;20155;-74
2022/07/27 06:10:19;;;;;;;13.30;5.60;;;23.20;99.90;;;;;;4893289;29;20059;-73
2022/07/27 06:12:48;;;;;;;10.38;5.63;;;23.30;99.90;;;;;;4895188;29;20135;-73
2022/07/27 06:15:16;;;;;;;12.18;5.10;;;23.40;99.90;;;;;;4877886;29;20145;-73
2022/07/27 06:17:45;;;;;;;14.05;5.45;;;23.40;99.90;;;;;;4893124;29;20052;-73
2022/07/27 06:20:13;;;;;;;8.07;5.38;;;23.30;99.90;;;;;;4893234;29;20521;-74
2022/07/27 06:22:48;;;;;;;6.38;5.00;;;23.20;99.90;;;;;;4894917;29;20103;-73
2022/07/27 06:25:15;;;;;;;6.22;4.78;;;23.00;99.90;;;;;;4894833;29;20364;-74
2022/07/27 06:27:43;;;;;;;10.85;5.43;;;22.90;99.90;;;;;;4894791;29;20091;-74
2022/07/27 06:30:13;;;;;;;11.13;6.22;;;22.80;99.90;;;;;;4893439;29;20542;-74
2022/07/27 06:32:40;;;;;;;9.60;6.38;;;22.80;99.90;;;;;;4895278;29;20088;-73
2022/07/27 06:35:09;;;;;;;11.20;6.00;;;22.70;99.90;;;;;;4894807;29;20433;-73
2022/07/27 06:37:36;;;;;;;8.35;5.97;;;22.70;99.90;;;;;;4894043;29;20181;-74
2022/07/27 06:40:04;;;;;;;10.25;5.53;;;22.70;99.90;;;;;;4848551;29;20076;-75
2022/07/27 06:42:31;;;;;;;10.48;5.80;;;22.70;99.90;;;;;;4874528;29;20056;-74
2022/07/27 06:44:59;;;;;;;11.38;5.28;;;22.70;99.90;;;;;;4875684;29;20087;-74
2022/07/27 06:47:27;;;;;;;9.63;6.05;;;22.60;99.90;;;;;;4875299;29;20061;-74
2022/07/27 06:49:54;;;;;;;12.48;5.78;;;22.60;99.90;;;;;;4875810;29;20419;-74
2022/07/27 06:52:21;;;;;;;12.15;6.20;;;22.60;99.90;;;;;;4876305;29;20076;-74
2022/07/27 06:54:49;;;;;;;14.98;6.53;;;22.50;99.90;;;;;;4875868;29;20417;-74
2022/07/27 06:57:16;;;;;;;11.75;6.90;;;22.60;99.90;;;;;;4874145;29;20482;-74
2022/07/27 06:59:43;;;;;;;10.25;6.70;;;22.60;99.90;;;;;;4874314;29;20045;-74
2022/07/27 07:02:10;;;;;;;13.57;6.47;;;22.70;99.90;;;;;;4875206;29;20056;-74
2022/07/27 07:04:39;;;;;;;8.25;6.30;;;22.70;99.90;;;;;;4875529;29;20475;-74
2022/07/27 07:07:07;;;;;;;12.77;6.10;;;22.80;99.90;;;;;;4865505;29;20125;-74
2022/07/27 07:09:34;;;;;;;10.77;7.03;;;22.70;99.90;;;;;;4856464;29;20415;-74
2022/07/27 07:12:02;;;;;;;14.52;6.13;;;22.70;99.90;;;;;;4859238;29;20520;-75
2022/07/27 07:14:29;;;;;;;17.25;5.70;;;22.60;99.90;;;;;;4867614;29;20064;-75
2022/07/27 07:16:56;;;;;;;14.10;5.78;;;22.60;99.90;;;;;;4892724;29;20076;-75
2022/07/27 07:19:24;;;;;;;10.70;6.25;;;22.60;99.90;;;;;;4863954;29;20049;-75
2022/07/27 07:21:52;;;;;;;11.15;6.38;;;22.60;99.90;;;;;;4857962;29;20059;-74
2022/07/27 07:24:20;;;;;;;8.73;5.90;;;22.60;99.90;;;;;;4888342;29;20048;-76
2022/07/27 07:26:47;;;;;;;13.23;6.20;;;22.60;99.90;;;;;;4892606;29;20052;-75
2022/07/27 07:29:15;;;;;;;11.65;6.10;;;22.60;99.90;;;;;;4892539;29;20049;-76
2022/07/27 07:31:42;;;;;;;10.77;5.75;;;22.60;99.90;;;;;;4885960;29;20060;-76
2022/07/27 07:34:09;;;;;;;12.30;5.75;;;22.70;99.90;;;;;;4890855;29;20048;-75
2022/07/27 07:36:36;;;;;;;9.40;5.97;;;22.80;99.90;;;;;;4890924;29;20432;-76
2022/07/27 07:39:05;;;;;;;13.60;6.32;;;22.90;99.90;;;;;;4890576;29;20053;-76
2022/07/27 07:41:32;;;;;;;12.27;5.85;;;23.00;99.90;;;;;;4892253;29;20076;-76
2022/07/27 07:43:59;;;;;;;19.08;6.63;;;23.10;99.90;;;;;;4893225;29;20458;-76
2022/07/27 07:46:27;;;;;;;19.15;7.47;;;23.20;99.90;;;;;;4892644;29;20289;-76
2022/07/27 07:48:54;;;;;;;15.80;6.55;;;23.50;99.90;;;;;;4871978;29;20093;-75
2022/07/27 07:51:21;;;;;;;8.10;5.70;;;23.60;99.90;;;;;;4886184;29;20143;-75
2022/07/27 07:53:48;;;;;;;9.32;5.68;;;23.80;99.90;;;;;;4890631;29;20159;-74
2022/07/27 07:56:17;;;;;;;9.43;6.43;;;23.80;99.90;;;;;;4892424;29;20080;-75
2022/07/27 07:58:44;;;;;;;10.73;6.10;;;23.70;99.90;;;;;;4891168;29;20422;-75
2022/07/27 08:01:11;;;;;;;14.05;6.18;;;23.60;99.90;;;;;;4893519;29;20051;-75
2022/07/27 08:03:39;;;;;;;13.38;7.10;;;23.50;99.90;;;;;;4876854;29;20052;-75
2022/07/27 08:06:07;;;;;;;12.70;9.07;;;23.40;99.90;;;;;;4889649;29;20067;-76
2022/07/27 08:08:34;;;;;;;12.60;7.07;;;23.20;99.90;;;;;;4876785;29;20596;-75
2022/07/27 08:11:01;;;;;;;14.00;6.53;;;23.00;99.90;;;;;;4894199;29;20437;-75
2022/07/27 08:13:30;;;;;;;9.57;6.38;;;22.90;99.90;;;;;;4893662;29;20040;-75
2022/07/27 08:15:57;;;;;;;8.00;5.25;;;22.80;99.90;;;;;;4888528;29;20165;-76
2022/07/27 08:18:24;;;;;;;8.82;5.85;;;22.70;99.90;;;;;;4892137;29;20147;-75
2022/07/27 08:20:51;;;;;;;14.70;6.43;;;22.70;99.90;;;;;;4892529;29;20092;-76
2022/07/27 08:23:18;;;;;;;11.30;6.18;;;22.90;99.90;;;;;;4893683;29;20144;-75
2022/07/27 08:25:45;;;;;;;13.55;5.95;;;23.00;99.90;;;;;;4891883;29;20399;-75
2022/07/27 08:28:13;;;;;;;13.48;5.65;;;23.10;99.90;;;;;;4896228;29;20071;-75
2022/07/27 08:30:41;;;;;;;8.27;5.68;;;23.00;99.90;;;;;;4896751;29;20494;-75
2022/07/27 08:33:08;;;;;;;9.77;5.57;;;22.80;99.90;;;;;;4897486;29;20048;-75
2022/07/27 08:35:35;;;;;;;11.98;5.40;;;22.70;99.90;;;;;;4896230;29;20044;-75
2022/07/27 08:38:05;;;;;;;8.32;6.07;;;22.70;99.90;;;;;;4891543;29;20056;-75
2022/07/27 08:40:33;;;;;;;14.00;7.90;;;22.60;99.90;;;;;;4891382;29;20465;-74
2022/07/27 08:43:01;;;;;;;9.65;6.53;;;22.50;99.90;;;;;;4876570;29;20080;-75
2022/07/27 08:45:29;;;;;;;14.60;6.28;;;22.40;99.90;;;;;;4878256;29;20553;-74
2022/07/27 08:47:57;;;;;;;7.40;6.15;;;22.30;99.90;;;;;;4863101;29;20063;-77
2022/07/27 08:50:26;;;;;;;6.22;5.68;;;22.30;99.90;;;;;;4879533;29;20057;-74
2022/07/27 08:53:02;;;;;;;5.97;4.70;;;22.30;99.90;;;;;;4878611;29;20433;-77
2022/07/27 08:55:31;;;;;;;5.40;4.88;;;22.50;99.90;;;;;;4878811;29;20429;-77
2022/07/27 08:57:58;;;;;;;6.68;6.03;;;22.70;99.90;;;;;;4871814;29;20573;-74
2022/07/27 09:00:26;;;;;;;12.00;9.35;;;22.90;99.90;;;;;;4877711;29;20578;-75
2022/07/27 09:02:53;;;;;;;6.78;5.32;;;23.00;99.90;;;;;;4881110;29;20423;-74
2022/07/27 09:05:22;;;;;;;6.80;5.03;;;23.10;99.90;;;;;;4891818;29;20052;-74
2022/07/27 09:07:49;;;;;;;7.22;4.38;;;23.10;99.90;;;;;;4879221;29;20099;-75
2022/07/27 09:10:30;;;;;;;9.02;5.65;;;23.00;99.90;;;;;;4879255;29;20522;-75
2022/07/27 09:12:58;;;;;;;8.80;5.45;;;22.90;99.90;;;;;;4862356;29;20144;-75
2022/07/27 09:15:26;;;;;;;7.00;5.13;;;22.90;99.90;;;;;;4879171;29;20045;-74
2022/07/27 09:17:53;;;;;;;7.55;4.90;;;22.90;99.90;;;;;;4877928;29;20097;-75
2022/07/27 09:20:22;;;;;;;5.30;4.72;;;22.90;99.90;;;;;;4878313;29;20084;-75
2022/07/27 09:22:51;;;;;;;9.77;4.93;;;22.80;99.90;;;;;;4870273;29;20056;-75
2022/07/27 09:25:21;;;;;;;7.25;4.75;;;22.80;99.90;;;;;;4860236;29;20065;-75
2022/07/27 09:27:49;;;;;;;10.98;5.57;;;22.80;99.90;;;;;;4843634;29;20090;-76
2022/07/27 09:30:19;;;;;;;11.00;5.40;;;22.80;99.90;;;;;;4859386;29;20049;-76
2022/07/27 09:32:55;;;;;;;5.97;5.07;;;22.80;99.90;;;;;;4843639;29;20092;-76
2022/07/27 09:35:28;;;;;;;7.55;4.80;;;22.70;99.90;;;;;;4860642;29;20053;-76
2022/07/27 09:37:56;;;;;;;9.20;5.90;;;22.70;99.90;;;;;;4858732;29;20055;-76
2022/07/27 09:40:24;;;;;;;7.00;4.95;;;22.60;99.90;;;;;;4869777;29;20063;-75
2022/07/27 09:43:09;;;;;;;8.85;5.15;;;22.50;99.90;;;;;;4878807;29;20080;-76
2022/07/27 09:45:38;;;;;;;9.50;5.70;;;22.40;99.90;;;;;;4877065;29;20430;-75
2022/07/27 09:48:13;;;;;;;9.90;6.88;;;22.40;99.90;;;;;;4882701;29;20053;-77
2022/07/27 09:50:44;;;;;;;12.00;6.68;;;22.30;99.90;;;;;;4870528;29;20103;-76
2022/07/27 09:53:31;;;;;;;9.10;5.50;;;22.30;99.90;;;;;;4878577;29;20120;-76
2022/07/27 09:55:59;;;;;;;5.85;4.60;;;22.40;99.90;;;;;;4877377;29;20530;-77
2022/07/27 09:58:45;;;;;;;6.95;4.30;;;22.50;99.90;;;;;;4877197;29;20419;-75
2022/07/27 10:01:14;;;;;;;6.38;3.72;;;22.60;99.90;;;;;;4878477;29;20429;-76
2022/07/27 10:03:42;;;;;;;4.57;3.17;;;22.60;99.90;;;;;;4877323;29;20053;-76
2022/07/27 10:06:15;;;;;;;5.95;3.33;;;22.80;99.90;;;;;;4878413;29;20429;-75
2022/07/27 10:08:43;;;;;;;6.68;3.72;;;22.70;99.90;;;;;;4878254;29;20057;-75
2022/07/27 10:11:11;;;;;;;5.65;3.40;;;22.60;99.90;;;;;;4876412;29;20072;-75
2022/07/27 10:13:39;;;;;;;3.25;2.95;;;22.60;99.90;;;;;;4876769;29;20060;-76
2022/07/27 10:16:11;;;;;;;6.82;2.63;;;22.70;99.90;;;;;;4877350;29;20064;-76
2022/07/27 10:18:47;;;;;;;9.17;2.77;;;22.90;99.90;;;;;;4867689;29;20061;-75
2022/07/27 10:21:17;;;;;;;4.35;2.65;;;23.30;99.90;;;;;;4872597;29;20540;-75
2022/07/27 10:23:56;;;;;;;5.03;3.40;;;23.80;99.90;;;;;;4867646;29;20059;-75
2022/07/27 10:26:30;;;;;;;4.35;2.20;;;24.30;99.90;;;;;;4872485;29;20057;-76
2022/07/27 10:28:59;;;;;;;7.72;2.40;;;24.70;99.90;;;;;;4876507;29;20279;-76
2022/07/27 10:31:28;;;;;;;6.82;2.47;;;25.00;99.90;;;;;;4877859;29;20403;-77
2022/07/27 10:33:57;;;;;;;5.80;2.95;;;25.30;99.90;;;;;;4877121;29;20156;-77
2022/07/27 10:36:45;;;;;;;5.18;2.92;;;25.30;99.90;;;;;;4876594;29;20057;-77
2022/07/27 10:39:28;;;;;;;3.15;2.60;;;25.40;99.90;;;;;;4877071;29;20057;-77
2022/07/27 10:42:19;;;;;;;6.60;3.05;;;25.50;99.90;;;;;;4876715;29;20071;-77
2022/07/27 10:45:06;;;;;;;7.63;3.13;;;25.60;99.90;;;;;;4877806;29;20057;-76
2022/07/27 10:47:44;;;;;;;9.07;2.80;;;25.60;99.90;;;;;;4871226;29;20053;-77
2022/07/27 10:50:28;;;;;;;8.10;3.22;;;25.50;99.90;;;;;;4869409;29;20085;-77
2022/07/27 10:53:05;;;;;;;5.32;2.53;;;25.40;99.90;;;;;;4858092;29;20098;-77
2022/07/27 10:55:50;;;;;;;5.35;2.50;;;25.30;99.90;;;;;;4859504;29;20102;-76
2022/07/27 10:58:43;;;;;;;5.38;2.53;;;25.20;99.90;;;;;;4859265;29;20082;-77
2022/07/27 11:01:12;;;;;;;5.57;2.47;;;25.20;99.90;;;;;;4857634;29;20486;-77
2022/07/27 11:03:40;;;;;;;3.75;2.40;;;25.30;99.90;;;;;;4858714;29;20053;-78
2022/07/27 11:06:36;;;;;;;9.48;2.72;;;25.20;99.90;;;;;;4859650;29;20046;-76
2022/07/27 11:09:37;;;;;;;8.15;2.30;;;25.00;99.90;;;;;;4870748;29;20098;-76
2022/07/27 11:12:28;;;;;;;8.20;3.00;;;24.80;99.90;;;;;;4886860;29;20053;-77
2022/07/27 11:14:59;;;;;;;7.22;2.70;;;24.60;99.90;;;;;;4894940;29;20052;-77
2022/07/27 11:17:30;;;;;;;5.97;2.63;;;24.40;99.90;;;;;;4895890;29;20100;-76
2022/07/27 11:20:05;;;;;;;5.20;2.50;;;24.40;99.90;;;;;;4876157;29;20080;-76
2022/07/27 11:22:40;;;;;;;2.78;2.42;;;24.10;99.90;;;;;;4895435;29;20067;-76
2022/07/27 11:25:09;;;;;;;5.10;2.60;;;23.90;99.90;;;;;;4892289;29;20140;-76
2022/07/27 11:27:46;;;;;;;4.53;2.50;;;23.80;99.90;;;;;;4895344;29;20084;-76
2022/07/27 11:30:21;;;;;;;4.55;2.20;;;24.00;99.90;;;;;;4859632;29;20053;-75
2022/07/27 11:32:49;;;;;;;10.18;4.38;;;24.30;99.90;;;;;;4858580;29;20049;-76
2022/07/27 11:35:17;;;;;;;6.47;2.92;;;24.50;99.90;;;;;;4869469;29;20590;-76
2022/07/27 11:37:58;;;;;;;6.30;2.65;;;24.50;99.90;;;;;;4864975;29;20049;-76
2022/07/27 11:40:27;;;;;;;7.93;2.70;;;24.40;99.90;;;;;;4858322;29;20092;-77
2022/07/27 11:42:54;;;;;;;4.47;2.67;;;24.20;99.90;;;;;;4857586;29;20123;-76
2022/07/27 11:45:28;;;;;;;6.70;2.58;;;23.90;99.90;;;;;;4869605;29;20053;-77
2022/07/27 11:47:56;;;;;;;5.88;2.78;;;23.70;99.90;;;;;;4858936;29;20460;-77
2022/07/27 11:50:24;;;;;;;5.25;2.08;;;23.80;99.90;;;;;;4866087;29;20332;-76
2022/07/27 11:52:56;;;;;;;4.68;2.38;;;24.00;99.90;;;;;;4876706;29;20056;-77
2022/07/27 11:55:23;;;;;;;;;;;24.30;99.90;;;;;;4860276;29;20201;-77
2022/07/27 11:57:52;;;;;;;5.13;2.67;;;24.60;99.90;;;;;;4876715;29;20106;-76
2022/07/27 12:00:19;;;;;;;5.93;3.13;;;24.80;99.90;;;;;;4878954;29;20063;-76
2022/07/27 12:02:50;;;;;;;9.15;2.53;;;24.70;99.90;;;;;;4880431;29;20060;-76
2022/07/27 12:05:17;;;;;;;8.10;3.85;;;24.50;99.90;;;;;;4874463;29;20139;-77
2022/07/27 12:07:44;;;;;;;7.47;3.13;;;24.30;99.90;;;;;;4861745;29;20551;-76
2022/07/27 12:10:12;;;;;;;11.32;3.20;;;23.90;99.90;;;;;;4845250;29;20057;-77
2022/07/27 12:12:39;;;;;;;7.47;3.30;;;23.70;99.90;;;;;;4860610;29;20049;-76
2022/07/27 12:15:17;;;;;;;5.60;2.58;;;23.50;99.90;;;;;;4861861;29;20072;-75
2022/07/27 12:17:46;;;;;;;7.95;2.25;;;23.30;99.90;;;;;;4845559;29;20102;-74
2022/07/27 12:20:16;;;;;;;3.45;1.90;;;23.20;99.90;;;;;;4879049;29;20053;-76
2022/07/27 12:22:45;;;;;;;2.75;2.20;;;23.30;99.90;;;;;;4878804;29;20048;-75
2022/07/27 12:25:28;;;;;;;4.97;1.98;;;23.30;99.90;;;;;;4880393;29;20105;-76
2022/07/27 12:27:57;;;;;;;5.20;2.20;;;23.20;99.90;;;;;;4878301;29;20083;-75
2022/07/27 12:30:33;;;;;;;6.25;2.50;;;23.10;99.90;;;;;;4860320;29;20534;-76
2022/07/27 12:33:02;;;;;;;3.47;2.00;;;23.10;99.90;;;;;;4861808;29;20187;-76
2022/07/27 12:35:31;;;;;;;3.75;2.70;;;22.90;99.90;;;;;;4860198;29;20045;-76
2022/07/27 12:38:01;;;;;;;3.83;2.50;;;22.80;99.90;;;;;;4861216;29;20567;-77
2022/07/27 12:40:28;;;;;;;4.50;2.50;;;22.70;99.90;;;;;;4861571;29;20061;-71
2022/07/27 12:42:57;;;;;;;8.55;2.80;;;22.60;99.90;;;;;;4871369;29;20136;-71
2022/07/27 12:45:30;;;;;;;6.28;3.00;;;22.40;99.90;;;;;;4879430;29;20076;-71
2022/07/27 12:48:05;;;;;;;;;;;22.30;99.90;;;;;;4879073;29;20053;-70
2022/07/27 12:50:33;;;;;;;6.60;3.08;;;22.10;99.90;;;;;;4879779;29;19958;-70
2022/07/27 12:53:00;;;;;;;8.10;3.97;;;22.00;99.90;;;;;;4879871;29;20188;-71
2022/07/27 12:55:27;;;;;;;9.30;5.32;;;22.20;99.90;;;;;;4878141;29;20049;-71
2022/07/27 12:57:54;;;;;;;10.93;4.30;;;22.30;99.90;;;;;;4878270;29;20514;-71
2022/07/27 13:00:23;;;;;;;6.90;4.05;;;22.60;99.90;;;;;;4879028;29;20429;-70
2022/07/27 13:02:51;;;;;;;7.80;3.60;;;22.80;99.90;;;;;;4879516;29;20063;-71